Terminal Aerodrome Forecast
Issued by NWS

Home | Current Version | Previous Version | Text Only | Print | Product List | Glossary On
Versions: 1 2 3 4 5 6 7 8 9 10 11 12 13
678
FTUS43 KUNR 061120
TAFGCC
TAF
KGCC 061120Z 0612/0712 34005KT P6SM BKN200
     FM061600 36017G27KT P6SM BKN080
     FM062300 02018KT P6SM -TSRA BKN050CB=

USA.gov is the U.S. government's official web portal to all federal, state and local government web resources and services.